createdAt,value
2023-05-17T00:00:57.287Z,12.49
2023-05-17T00:03:24.145Z,12.53
2023-05-17T00:05:50.862Z,12.53
2023-05-17T00:08:17.548Z,12.44
2023-05-17T00:10:44.323Z,12.52
2023-05-17T00:13:11.382Z,12.53
2023-05-17T00:15:38.127Z,12.44
2023-05-17T00:18:04.967Z,12.37
2023-05-17T00:20:31.826Z,12.42
2023-05-17T00:22:58.539Z,12.44
2023-05-17T00:25:25.491Z,12.31
2023-05-17T00:27:52.382Z,12.45
2023-05-17T00:30:19.073Z,12.37
2023-05-17T00:32:47.017Z,12.33
2023-05-17T00:35:15.365Z,12.23
2023-05-17T00:37:47.582Z,12.09
2023-05-17T00:40:18.320Z,12.03
2023-05-17T00:42:45.322Z,12.07
2023-05-17T00:45:12.245Z,12.05
2023-05-17T00:47:39.246Z,12.24
2023-05-17T00:50:06.731Z,12.04
2023-05-17T00:52:33.811Z,12.03
2023-05-17T00:55:00.758Z,11.89
2023-05-17T00:57:29.204Z,12.05
2023-05-17T00:59:56.322Z,12.07
2023-05-17T01:02:24.403Z,12.18
2023-05-17T01:04:51.207Z,11.88
2023-05-17T01:07:18.147Z,12.03
2023-05-17T01:09:47.458Z,11.92
2023-05-17T01:12:29.070Z,11.93
2023-05-17T01:15:15.565Z,12.11
2023-05-17T01:17:45.698Z,12.08
2023-05-17T01:20:26.912Z,12.12
2023-05-17T01:23:11.258Z,12.01
2023-05-17T01:25:57.476Z,11.96
2023-05-17T01:28:26.394Z,11.95
2023-05-17T01:30:54.593Z,12.00
2023-05-17T01:33:21.932Z,12.07
2023-05-17T01:35:48.785Z,11.98
2023-05-17T01:38:15.656Z,11.99
2023-05-17T01:40:58.671Z,11.96
2023-05-17T01:43:47.996Z,12.02
2023-05-17T01:46:26.582Z,12.03
2023-05-17T01:49:10.994Z,12.01
2023-05-17T01:51:47.497Z,11.99
2023-05-17T01:54:21.851Z,12.09
2023-05-17T01:56:56.587Z,11.96
2023-05-17T01:59:25.410Z,11.96
2023-05-17T02:01:58.525Z,12.02
2023-05-17T02:04:25.301Z,11.92
2023-05-17T02:06:52.760Z,11.87
2023-05-17T02:09:19.486Z,11.72
2023-05-17T02:11:46.197Z,11.72
2023-05-17T02:14:12.921Z,11.82
2023-05-17T02:16:40.341Z,11.70
2023-05-17T02:19:09.065Z,11.65
2023-05-17T02:21:35.803Z,11.63
2023-05-17T02:24:02.857Z,11.61
2023-05-17T02:26:29.648Z,11.64
2023-05-17T02:28:56.416Z,11.62
2023-05-17T02:31:27.062Z,11.50
2023-05-17T02:33:54.690Z,11.43
2023-05-17T02:36:23.319Z,11.52
2023-05-17T02:38:50.203Z,11.39
2023-05-17T02:41:16.937Z,11.47
2023-05-17T02:43:43.687Z,11.42
2023-05-17T02:46:10.597Z,11.48
2023-05-17T02:48:37.664Z,11.39
2023-05-17T02:51:04.676Z,11.60
2023-05-17T02:53:31.618Z,11.57
2023-05-17T02:55:58.571Z,11.43
2023-05-17T02:58:25.917Z,11.44
2023-05-17T03:00:53.074Z,11.37
2023-05-17T03:03:19.933Z,11.40
2023-05-17T03:05:46.954Z,11.41
2023-05-17T03:08:14.161Z,11.42
2023-05-17T03:10:42.067Z,11.53
2023-05-17T03:13:10.082Z,11.43
2023-05-17T03:15:39.180Z,11.45
2023-05-17T03:18:06.437Z,11.35
2023-05-17T03:20:34.018Z,11.32
2023-05-17T03:23:01.280Z,11.18
2023-05-17T03:25:28.368Z,11.22
2023-05-17T03:27:56.019Z,11.20
2023-05-17T03:30:22.842Z,11.29
2023-05-17T03:32:50.171Z,11.27
2023-05-17T03:35:17.248Z,11.20
2023-05-17T03:37:48.279Z,11.29
2023-05-17T03:40:15.143Z,11.15
2023-05-17T03:42:42.225Z,11.14
2023-05-17T03:45:10.382Z,11.20
2023-05-17T03:47:37.183Z,11.18
2023-05-17T03:50:05.911Z,11.26
2023-05-17T03:52:33.337Z,11.16
2023-05-17T03:55:00.302Z,11.26
2023-05-17T03:57:27.122Z,11.28
2023-05-17T03:59:54.398Z,11.31
2023-05-17T04:02:22.209Z,11.30
2023-05-17T04:04:50.539Z,11.19
2023-05-17T04:07:19.156Z,11.34
2023-05-17T04:09:47.485Z,11.24
2023-05-17T04:12:14.269Z,11.28
2023-05-17T04:14:41.358Z,11.22
2023-05-17T04:17:08.170Z,11.17
2023-05-17T04:19:35.233Z,11.23
2023-05-17T04:22:02.042Z,11.15
2023-05-17T04:24:29.448Z,11.20
2023-05-17T04:26:57.212Z,11.16
2023-05-17T04:29:25.484Z,11.38
2023-05-17T04:31:52.360Z,11.31
2023-05-17T04:34:19.444Z,11.34
2023-05-17T04:36:46.329Z,11.23
2023-05-17T04:39:13.110Z,11.33
2023-05-17T04:41:40.448Z,11.35
2023-05-17T04:44:11.229Z,11.16
2023-05-17T04:46:37.953Z,11.15
2023-05-17T04:49:04.800Z,11.20
2023-05-17T04:51:31.801Z,11.31
2023-05-17T04:54:01.052Z,11.16
2023-05-17T04:56:29.696Z,11.43
2023-05-17T04:58:57.224Z,11.50
2023-05-17T05:01:24.088Z,11.55
2023-05-17T05:03:51.584Z,11.66
2023-05-17T05:06:18.595Z,11.62
2023-05-17T05:08:45.377Z,11.62
2023-05-17T05:11:13.018Z,11.62
2023-05-17T05:13:41.663Z,11.70
2023-05-17T05:16:08.851Z,11.79
2023-05-17T05:18:36.918Z,12.05
2023-05-17T05:21:04.196Z,12.06
2023-05-17T05:23:32.455Z,12.04
2023-05-17T05:25:59.265Z,11.93
2023-05-17T05:28:26.903Z,12.01
2023-05-17T05:30:59.217Z,12.23
2023-05-17T05:33:27.822Z,12.24
2023-05-17T05:35:56.801Z,12.13
2023-05-17T05:38:23.552Z,12.05
2023-05-17T05:40:50.388Z,12.13
2023-05-17T05:43:17.299Z,12.28
2023-05-17T05:45:47.148Z,12.49
2023-05-17T05:48:14.624Z,12.66
2023-05-17T05:50:43.709Z,12.76
2023-05-17T05:53:18.817Z,12.96
2023-05-17T05:55:52.054Z,12.93
2023-05-17T05:58:19.956Z,12.91
2023-05-17T06:00:47.693Z,13.05
2023-05-17T06:03:15.006Z,13.11
2023-05-17T06:05:41.951Z,13.16
2023-05-17T06:08:08.833Z,13.37
2023-05-17T06:10:35.536Z,13.37
2023-05-17T06:13:02.351Z,13.21
2023-05-17T06:15:30.985Z,13.40
2023-05-17T06:17:57.845Z,13.34
2023-05-17T06:20:24.666Z,13.55
2023-05-17T06:22:51.351Z,13.70
2023-05-17T06:25:18.173Z,13.72
2023-05-17T06:27:44.895Z,13.91
2023-05-17T06:30:12.346Z,13.87
2023-05-17T06:32:39.297Z,14.02
2023-05-17T06:35:06.950Z,14.03
2023-05-17T06:37:33.877Z,13.96
2023-05-17T06:40:15.508Z,14.11
2023-05-17T06:42:43.697Z,14.31
2023-05-17T06:45:10.960Z,14.22
2023-05-17T06:47:37.837Z,14.42
2023-05-17T06:50:05.383Z,14.33
2023-05-17T06:52:32.225Z,14.18
2023-05-17T06:54:58.937Z,14.37
2023-05-17T06:57:25.640Z,14.34
2023-05-17T06:59:52.385Z,14.24
2023-05-17T07:02:19.615Z,14.20
2023-05-17T07:04:46.346Z,14.28
2023-05-17T07:07:13.098Z,14.44
2023-05-17T07:09:39.982Z,14.32
2023-05-17T07:12:07.173Z,14.42
2023-05-17T07:14:34.117Z,14.39
2023-05-17T07:17:01.494Z,14.49
2023-05-17T07:19:28.660Z,14.41
2023-05-17T07:21:55.494Z,14.45
2023-05-17T07:24:22.250Z,14.65
2023-05-17T07:26:50.227Z,14.78
2023-05-17T07:29:18.834Z,14.68
2023-05-17T07:31:45.650Z,14.81
2023-05-17T07:34:13.669Z,15.18
2023-05-17T07:36:40.487Z,15.26
2023-05-17T07:39:08.696Z,15.24
2023-05-17T07:41:36.406Z,15.02
2023-05-17T07:44:03.175Z,14.88
2023-05-17T07:46:29.913Z,14.54
2023-05-17T07:48:58.529Z,14.52
2023-05-17T07:51:26.303Z,14.60
2023-05-17T07:53:53.134Z,14.63
2023-05-17T07:56:19.826Z,14.49
2023-05-17T07:58:46.691Z,14.21
2023-05-17T08:01:13.382Z,14.18
2023-05-17T08:03:47.597Z,14.04
2023-05-17T08:06:17.750Z,14.06
2023-05-17T08:08:45.020Z,13.89
2023-05-17T08:11:12.987Z,13.70
2023-05-17T08:13:39.936Z,14.03
2023-05-17T08:16:14.289Z,14.16
2023-05-17T08:18:44.812Z,14.02
2023-05-17T08:21:11.844Z,13.88
2023-05-17T08:23:39.261Z,13.80
2023-05-17T08:26:06.070Z,13.88
2023-05-17T08:28:32.803Z,13.89
2023-05-17T08:30:59.466Z,13.82
2023-05-17T08:33:27.429Z,13.66
2023-05-17T08:35:57.980Z,13.71
2023-05-17T08:38:24.776Z,13.90
2023-05-17T08:40:55.771Z,13.85
2023-05-17T08:43:26.873Z,13.98
2023-05-17T08:45:57.558Z,13.98
2023-05-17T08:48:31.176Z,14.50
2023-05-17T08:50:59.995Z,14.55
2023-05-17T08:53:27.102Z,14.81
2023-05-17T08:55:58.855Z,14.82
2023-05-17T08:58:29.357Z,14.79
2023-05-17T09:00:59.620Z,14.94
2023-05-17T09:03:27.741Z,15.10
2023-05-17T09:05:54.746Z,15.27
2023-05-17T09:08:23.061Z,15.28
2023-05-17T09:10:50.654Z,15.30
2023-05-17T09:13:17.540Z,15.35
2023-05-17T09:15:47.158Z,15.02
2023-05-17T09:18:16.984Z,15.31
2023-05-17T09:20:51.656Z,15.42
2023-05-17T09:23:20.999Z,15.28
2023-05-17T09:25:49.707Z,15.35
2023-05-17T09:28:20.352Z,15.15
2023-05-17T09:30:49.212Z,14.85
2023-05-17T09:33:18.550Z,14.83
2023-05-17T09:35:45.878Z,15.00
2023-05-17T09:38:13.861Z,15.01
2023-05-17T09:40:42.742Z,14.95
2023-05-17T09:43:10.282Z,14.81
2023-05-17T09:45:37.447Z,14.87
2023-05-17T09:48:22.200Z,14.78
2023-05-17T09:50:51.156Z,14.77
2023-05-17T09:53:28.597Z,14.92
2023-05-17T09:55:58.679Z,14.98
2023-05-17T09:58:28.412Z,14.96
2023-05-17T10:01:01.547Z,14.90
2023-05-17T10:03:33.302Z,14.93
2023-05-17T10:06:05.227Z,14.92
2023-05-17T10:08:33.558Z,14.90
2023-05-17T10:11:07.242Z,15.00
2023-05-17T10:13:40.697Z,15.09
2023-05-17T10:16:07.579Z,15.26
2023-05-17T10:18:34.965Z,15.32
2023-05-17T10:21:02.159Z,15.28
2023-05-17T10:23:30.933Z,15.53
2023-05-17T10:25:59.600Z,15.58
2023-05-17T10:28:27.173Z,15.51
2023-05-17T10:30:54.886Z,15.52
2023-05-17T10:33:24.375Z,15.50
2023-05-17T10:35:52.094Z,15.50
2023-05-17T10:38:20.514Z,15.53
2023-05-17T10:40:51.656Z,15.58
2023-05-17T10:43:18.770Z,16.00
2023-05-17T10:45:46.471Z,16.40
2023-05-17T10:48:15.713Z,16.55
2023-05-17T10:50:54.570Z,16.72
2023-05-17T10:53:28.443Z,16.80
2023-05-17T10:55:55.415Z,16.65
2023-05-17T10:58:26.559Z,16.84
2023-05-17T11:00:55.835Z,16.99
2023-05-17T11:03:30.250Z,16.68
2023-05-17T11:06:25.389Z,16.13
2023-05-17T11:09:18.776Z,16.38
2023-05-17T11:12:12.416Z,16.52
2023-05-17T11:14:45.986Z,16.23
2023-05-17T11:17:21.232Z,16.27
2023-05-17T11:19:54.757Z,16.19
2023-05-17T11:22:33.976Z,16.20
2023-05-17T11:25:05.640Z,16.21
2023-05-17T11:27:37.524Z,16.08
2023-05-17T11:30:26.695Z,16.07
2023-05-17T11:33:25.476Z,16.07
2023-05-17T11:36:05.440Z,16.07
2023-05-17T11:38:32.867Z,15.80
2023-05-17T11:41:26.365Z,15.92
2023-05-17T11:43:54.419Z,16.23
2023-05-17T11:46:23.002Z,16.24
2023-05-17T11:48:53.922Z,16.13
2023-05-17T11:51:24.661Z,16.27
2023-05-17T11:53:55.492Z,16.63
2023-05-17T11:56:29.149Z,16.48
2023-05-17T11:58:59.426Z,16.42
2023-05-17T12:01:26.193Z,16.33
2023-05-17T12:03:59.829Z,16.40
2023-05-17T12:06:28.699Z,16.34
2023-05-17T12:08:55.759Z,16.33
2023-05-17T12:11:22.694Z,16.19
2023-05-17T12:13:51.901Z,16.19
2023-05-17T12:16:22.556Z,16.12
2023-05-17T12:18:51.242Z,16.04
2023-05-17T12:21:20.501Z,16.26
2023-05-17T12:23:51.305Z,16.59
2023-05-17T12:26:20.145Z,16.47
2023-05-17T12:28:53.307Z,16.60
2023-05-17T12:31:32.498Z,16.62
2023-05-17T12:34:02.054Z,16.79
2023-05-17T12:36:29.989Z,16.63
2023-05-17T12:38:57.357Z,16.55
2023-05-17T12:41:29.459Z,16.82
2023-05-17T12:44:06.209Z,16.83
2023-05-17T12:46:34.009Z,16.76
2023-05-17T12:49:07.263Z,16.83
2023-05-17T12:51:47.020Z,17.09
2023-05-17T12:54:29.637Z,17.14
2023-05-17T12:56:56.907Z,17.19
2023-05-17T12:59:25.878Z,17.09
2023-05-17T13:01:58.045Z,16.96
2023-05-17T13:04:32.646Z,16.90
2023-05-17T13:07:02.347Z,16.99
2023-05-17T13:09:31.220Z,17.08
2023-05-17T13:12:05.441Z,17.29
2023-05-17T13:14:45.629Z,17.36
2023-05-17T13:17:24.121Z,17.11
2023-05-17T13:19:51.086Z,17.23
2023-05-17T13:22:18.117Z,16.96
2023-05-17T13:24:45.218Z,16.91
2023-05-17T13:27:12.630Z,16.84
2023-05-17T13:29:41.681Z,16.94
2023-05-17T13:32:10.676Z,17.11
2023-05-17T13:34:37.720Z,17.29
2023-05-17T13:37:05.925Z,17.25
2023-05-17T13:39:33.983Z,17.38
2023-05-17T13:42:00.781Z,17.46
2023-05-17T13:44:27.900Z,17.73
2023-05-17T13:46:54.599Z,18.02
2023-05-17T13:49:21.426Z,18.13
2023-05-17T13:51:48.272Z,18.27
2023-05-17T13:54:15.122Z,18.49
2023-05-17T13:56:41.916Z,18.35
2023-05-17T13:59:08.695Z,18.34
2023-05-17T14:01:35.495Z,18.06
2023-05-17T14:04:02.383Z,18.34
2023-05-17T14:06:29.346Z,18.68
2023-05-17T14:08:57.136Z,19.06
2023-05-17T14:11:23.933Z,19.25
2023-05-17T14:13:51.766Z,19.06
2023-05-17T14:16:18.472Z,18.79
2023-05-17T14:18:46.315Z,18.65
2023-05-17T14:21:13.176Z,19.05
2023-05-17T14:23:39.878Z,19.30
2023-05-17T14:26:07.527Z,19.64
2023-05-17T14:28:37.976Z,19.70
2023-05-17T14:31:10.648Z,19.63
2023-05-17T14:33:37.441Z,19.36
2023-05-17T14:36:04.620Z,19.23
2023-05-17T14:38:31.501Z,19.49
2023-05-17T14:41:00.612Z,19.68
2023-05-17T14:43:28.087Z,20.20
2023-05-17T14:45:54.748Z,20.52
2023-05-17T14:48:21.542Z,20.18
2023-05-17T14:50:48.304Z,19.59
2023-05-17T14:53:15.076Z,20.00
2023-05-17T14:55:42.447Z,20.42
2023-05-17T14:58:09.271Z,20.19
2023-05-17T15:00:36.115Z,20.64
2023-05-17T15:03:03.111Z,20.29
2023-05-17T15:05:30.375Z,19.82
2023-05-17T15:07:57.722Z,20.69
2023-05-17T15:10:24.441Z,21.32
2023-05-17T15:12:51.113Z,22.08
2023-05-17T15:15:20.513Z,23.60
2023-05-17T15:17:47.649Z,23.58
2023-05-17T15:20:15.513Z,22.46
2023-05-17T15:22:42.275Z,21.66
2023-05-17T15:25:09.163Z,21.77
2023-05-17T15:27:36.294Z,23.86
2023-05-17T15:30:03.104Z,26.21
2023-05-17T15:32:34.082Z,25.53
2023-05-17T15:35:01.177Z,24.10
2023-05-17T15:37:30.118Z,23.83
2023-05-17T15:39:57.077Z,23.15
2023-05-17T15:42:23.770Z,22.14
2023-05-17T15:44:50.437Z,21.46
2023-05-17T15:47:17.130Z,20.66
2023-05-17T15:49:43.843Z,20.24
2023-05-17T15:52:12.607Z,19.98
2023-05-17T15:54:39.311Z,19.76
2023-05-17T15:57:06.374Z,19.47
2023-05-17T15:59:33.299Z,19.26
2023-05-17T16:01:59.985Z,19.38
2023-05-17T16:04:26.818Z,19.15
2023-05-17T16:06:53.504Z,19.01
2023-05-17T16:09:20.153Z,18.82
2023-05-17T16:11:46.873Z,18.79
2023-05-17T16:14:13.624Z,18.84
2023-05-17T16:16:40.441Z,18.72
2023-05-17T16:19:07.215Z,18.60
2023-05-17T16:21:33.981Z,18.58
2023-05-17T16:24:01.376Z,18.51
2023-05-17T16:26:28.097Z,18.53
2023-05-17T16:28:56.753Z,18.49
2023-05-17T16:31:23.823Z,18.27
2023-05-17T16:33:51.614Z,18.29
2023-05-17T16:36:18.693Z,18.28
2023-05-17T16:38:45.373Z,18.26
2023-05-17T16:41:12.280Z,18.35
2023-05-17T16:43:39.179Z,18.29
2023-05-17T16:46:06.132Z,18.32
2023-05-17T16:48:32.908Z,18.04
2023-05-17T16:51:00.071Z,18.18
2023-05-17T16:53:29.587Z,18.05
2023-05-17T16:55:56.469Z,18.14
2023-05-17T16:58:23.276Z,18.12
2023-05-17T17:00:50.021Z,18.08
2023-05-17T17:03:16.843Z,18.10
2023-05-17T17:05:43.616Z,18.00
2023-05-17T17:08:10.321Z,18.15
2023-05-17T17:10:37.034Z,18.08
2023-05-17T17:13:03.908Z,17.89
2023-05-17T17:15:30.806Z,17.83
2023-05-17T17:17:57.607Z,17.80
2023-05-17T17:20:24.939Z,17.76
2023-05-17T17:22:52.030Z,17.72
2023-05-17T17:25:19.161Z,17.64
2023-05-17T17:27:45.876Z,17.63
2023-05-17T17:30:12.909Z,17.60
2023-05-17T17:32:39.654Z,17.57
2023-05-17T17:35:07.035Z,17.58
2023-05-17T17:37:33.722Z,17.57
2023-05-17T17:40:00.802Z,17.57
2023-05-17T17:42:29.684Z,17.49
2023-05-17T17:44:58.135Z,17.39
2023-05-17T17:47:25.030Z,17.39
2023-05-17T17:49:51.795Z,17.41
2023-05-17T17:52:18.480Z,17.34
2023-05-17T17:54:46.238Z,17.36
2023-05-17T17:57:13.265Z,17.34
2023-05-17T17:59:40.056Z,17.28
2023-05-17T18:02:06.793Z,17.44
2023-05-17T18:04:33.643Z,17.45
2023-05-17T18:07:01.948Z,17.56
2023-05-17T18:09:28.802Z,17.65
2023-05-17T18:11:57.003Z,17.55
2023-05-17T18:14:23.741Z,17.50
2023-05-17T18:16:50.546Z,17.30
2023-05-17T18:19:17.397Z,17.43
2023-05-17T18:21:44.498Z,17.42
2023-05-17T18:24:11.351Z,17.34
2023-05-17T18:26:38.058Z,17.43
2023-05-17T18:29:04.919Z,17.29
2023-05-17T18:31:31.854Z,17.25
2023-05-17T18:33:58.792Z,17.09
2023-05-17T18:36:25.659Z,16.95
2023-05-17T18:38:52.512Z,16.94
2023-05-17T18:41:19.239Z,16.92
2023-05-17T18:43:45.981Z,16.85
2023-05-17T18:46:13.053Z,16.82
2023-05-17T18:48:40.766Z,16.86
2023-05-17T18:51:07.789Z,16.77
2023-05-17T18:53:36.111Z,16.81
2023-05-17T18:56:02.936Z,16.75
2023-05-17T18:58:29.924Z,16.67
2023-05-17T19:00:56.975Z,16.58
2023-05-17T19:03:23.670Z,16.47
2023-05-17T19:05:50.416Z,16.48
2023-05-17T19:08:17.179Z,16.47
2023-05-17T19:10:43.993Z,16.44
2023-05-17T19:13:11.252Z,16.41
2023-05-17T19:15:38.117Z,16.37
2023-05-17T19:18:04.986Z,16.31
2023-05-17T19:20:36.006Z,16.29
2023-05-17T19:23:04.288Z,16.29
2023-05-17T19:25:30.929Z,16.26
2023-05-17T19:27:57.677Z,16.23
2023-05-17T19:30:24.448Z,16.29
2023-05-17T19:32:51.417Z,16.20
2023-05-17T19:35:18.356Z,16.17
2023-05-17T19:37:45.134Z,16.22
2023-05-17T19:40:12.388Z,16.22
2023-05-17T19:42:39.632Z,16.27
2023-05-17T19:45:09.724Z,16.28
2023-05-17T19:47:36.749Z,16.23
2023-05-17T19:50:03.814Z,16.07
2023-05-17T19:52:31.436Z,16.08
2023-05-17T19:54:58.128Z,16.03
2023-05-17T19:57:25.186Z,15.97
2023-05-17T19:59:52.412Z,15.95
2023-05-17T20:02:19.380Z,15.95
2023-05-17T20:04:46.663Z,15.97
2023-05-17T20:07:13.624Z,15.80
2023-05-17T20:09:40.811Z,15.76
2023-05-17T20:12:08.010Z,15.63
2023-05-17T20:14:35.080Z,15.66
2023-05-17T20:17:02.612Z,15.56
2023-05-17T20:19:32.289Z,15.62
2023-05-17T20:21:59.164Z,15.42
2023-05-17T20:24:28.838Z,15.31
2023-05-17T20:26:58.840Z,15.39
2023-05-17T20:29:25.629Z,15.30
2023-05-17T20:31:52.439Z,15.30
2023-05-17T20:34:19.485Z,15.34
2023-05-17T20:36:46.334Z,15.30
2023-05-17T20:39:15.115Z,15.25
2023-05-17T20:41:42.303Z,15.37
2023-05-17T20:44:10.306Z,15.21
2023-05-17T20:46:37.082Z,15.15
2023-05-17T20:49:03.824Z,15.03
2023-05-17T20:51:30.943Z,15.11
2023-05-17T20:53:57.685Z,14.94
2023-05-17T20:56:25.502Z,14.94
2023-05-17T20:58:52.210Z,14.87
2023-05-17T21:01:20.056Z,14.78
2023-05-17T21:03:46.980Z,14.78
2023-05-17T21:06:13.829Z,14.72
2023-05-17T21:08:41.850Z,14.73
2023-05-17T21:11:08.824Z,14.72
2023-05-17T21:13:35.495Z,14.74
2023-05-17T21:16:02.504Z,14.59
2023-05-17T21:18:29.257Z,14.64
2023-05-17T21:20:56.027Z,14.50
2023-05-17T21:23:22.669Z,14.59
2023-05-17T21:25:49.567Z,14.31
2023-05-17T21:28:16.365Z,14.42
2023-05-17T21:30:43.068Z,14.38
2023-05-17T21:33:10.038Z,14.29
2023-05-17T21:35:36.869Z,14.25
2023-05-17T21:38:03.793Z,14.24
2023-05-17T21:40:30.981Z,14.28
2023-05-17T21:42:57.986Z,14.29
2023-05-17T21:45:24.846Z,14.34
2023-05-17T21:47:52.474Z,14.31
2023-05-17T21:50:19.488Z,14.26
2023-05-17T21:52:46.304Z,14.13
2023-05-17T21:55:13.175Z,14.05
2023-05-17T21:57:40.166Z,14.13
2023-05-17T22:00:07.978Z,14.06
2023-05-17T22:02:36.005Z,13.93
2023-05-17T22:05:03.245Z,13.93
2023-05-17T22:07:31.675Z,13.96
2023-05-17T22:09:58.913Z,13.82
2023-05-17T22:12:26.844Z,13.72
2023-05-17T22:14:55.745Z,13.81
2023-05-17T22:17:35.192Z,13.60
2023-05-17T22:20:11.772Z,13.71
2023-05-17T22:22:38.726Z,13.61
2023-05-17T22:25:06.795Z,13.53
2023-05-17T22:27:33.883Z,13.61
2023-05-17T22:30:01.113Z,13.48
2023-05-17T22:32:27.962Z,13.41
2023-05-17T22:34:56.016Z,13.47
2023-05-17T22:37:23.521Z,13.49
2023-05-17T22:39:50.446Z,13.40
2023-05-17T22:42:17.192Z,13.46
2023-05-17T22:44:43.974Z,13.21
2023-05-17T22:47:14.841Z,13.27
2023-05-17T22:49:42.183Z,13.06
2023-05-17T22:52:10.969Z,13.14
2023-05-17T22:54:38.181Z,13.15
2023-05-17T22:57:05.251Z,13.20
2023-05-17T22:59:33.092Z,13.16
2023-05-17T23:02:02.104Z,13.25
2023-05-17T23:04:30.203Z,13.25
2023-05-17T23:07:02.075Z,13.24
2023-05-17T23:09:33.761Z,13.21
2023-05-17T23:12:05.454Z,13.02
2023-05-17T23:14:36.206Z,13.05
2023-05-17T23:17:04.178Z,13.12
2023-05-17T23:19:32.697Z,13.10
2023-05-17T23:22:06.154Z,13.00
2023-05-17T23:24:38.279Z,12.89
2023-05-17T23:27:05.943Z,12.93
2023-05-17T23:29:33.711Z,12.66
2023-05-17T23:32:00.659Z,12.71
2023-05-17T23:34:27.585Z,12.65
2023-05-17T23:36:54.332Z,12.90
2023-05-17T23:39:21.039Z,12.73
2023-05-17T23:41:48.397Z,12.70
2023-05-17T23:44:15.121Z,12.70
2023-05-17T23:46:44.423Z,12.73
2023-05-17T23:49:11.252Z,12.65
2023-05-17T23:51:37.917Z,12.63
2023-05-17T23:54:04.956Z,12.59
2023-05-17T23:56:31.664Z,12.49
2023-05-17T23:58:58.384Z,12.56
